Time;durP1;ratioP1;P1;durP2;ratioP2;P2;SDS_P1;SDS_P2;PMS_P1;PMS_P2;Temp;Humidity;BMP_temperature;BMP_pressure;BME280_temperature;BME280_humidity;BME280_pressure;Samples;Min_cycle;Max_cycle;Signal;HPM_P1;HPM_P2
2021/09/15 00:01:18;;;;;;;11.93;7.90;;;18.10;99.90;;;;;;5075554;28;20512;-72
2021/09/15 00:03:45;;;;;;;8.00;7.30;;;18.10;99.90;;;;;;5075299;28;20790;-72
2021/09/15 00:06:11;;;;;;;8.23;6.20;;;18.10;99.90;;;;;;5075343;28;20834;-72
2021/09/15 00:08:39;;;;;;;8.30;7.50;;;18.10;99.90;;;;;;5075466;28;20976;-72
2021/09/15 00:11:06;;;;;;;9.13;7.77;;;18.10;99.90;;;;;;5075071;28;20497;-72
2021/09/15 00:13:33;;;;;;;9.70;7.33;;;18.10;99.90;;;;;;5075250;28;20459;-74
2021/09/15 00:16:00;;;;;;;9.50;8.10;;;18.10;99.90;;;;;;5074681;28;20914;-73
2021/09/15 00:18:27;;;;;;;8.30;7.57;;;18.10;99.90;;;;;;5075405;28;20466;-72
2021/09/15 00:20:53;;;;;;;9.70;8.13;;;18.10;99.90;;;;;;5075945;28;20458;-72
2021/09/15 00:23:20;;;;;;;11.30;6.93;;;18.10;99.90;;;;;;5074643;28;20461;-72
2021/09/15 00:25:49;;;;;;;7.60;6.90;;;18.10;99.90;;;;;;5075099;28;20457;-72
2021/09/15 00:28:16;;;;;;;8.03;7.23;;;18.10;99.90;;;;;;5074824;28;20458;-73
2021/09/15 00:30:46;;;;;;;8.53;7.63;;;18.10;99.90;;;;;;5074961;28;20523;-72
2021/09/15 00:33:13;;;;;;;8.70;7.67;;;18.10;99.90;;;;;;5074808;28;20460;-72
2021/09/15 00:35:39;;;;;;;9.90;7.67;;;18.10;99.90;;;;;;5074949;28;20520;-72
2021/09/15 00:38:06;;;;;;;8.73;7.73;;;18.10;99.90;;;;;;5074696;28;20787;-72
2021/09/15 00:40:33;;;;;;;10.17;8.10;;;18.10;99.90;;;;;;5074616;28;20485;-72
2021/09/15 00:43:01;;;;;;;8.83;7.93;;;18.00;99.90;;;;;;5074792;28;20482;-72
2021/09/15 00:45:28;;;;;;;13.93;8.30;;;18.00;99.90;;;;;;5074394;28;20466;-72
2021/09/15 00:47:56;;;;;;;8.10;7.30;;;18.00;99.90;;;;;;5074826;28;20528;-72
2021/09/15 00:50:23;;;;;;;9.37;8.30;;;18.00;99.90;;;;;;5074324;28;20458;-72
2021/09/15 00:52:49;;;;;;;11.03;8.13;;;18.00;99.90;;;;;;5074795;28;20805;-72
2021/09/15 00:55:22;;;;;;;7.87;7.07;;;18.00;99.90;;;;;;5074785;28;20458;-72
2021/09/15 00:57:49;;;;;;;8.80;7.87;;;18.00;99.90;;;;;;5073873;28;20473;-72
2021/09/15 01:00:18;;;;;;;10.00;7.30;;;18.00;99.90;;;;;;5074706;28;20785;-72
2021/09/15 01:02:44;;;;;;;8.60;7.83;;;17.90;99.90;;;;;;5074388;28;20483;-72
2021/09/15 01:05:13;;;;;;;8.20;7.47;;;18.00;99.90;;;;;;5074466;28;20470;-72
2021/09/15 01:07:42;;;;;;;9.67;8.70;;;18.00;99.90;;;;;;5074135;28;20963;-72
2021/09/15 01:10:10;;;;;;;8.03;7.23;;;18.00;99.90;;;;;;5074382;28;20556;-72
2021/09/15 01:12:41;;;;;;;11.03;8.03;;;18.00;99.90;;;;;;5074393;28;20917;-72
2021/09/15 01:15:08;;;;;;;10.53;8.97;;;18.00;99.90;;;;;;5073996;28;20458;-72
2021/09/15 01:17:36;;;;;;;9.13;8.33;;;18.00;99.90;;;;;;5074622;28;20461;-72
2021/09/15 01:20:05;;;;;;;10.03;8.97;;;18.00;99.90;;;;;;5074004;28;20568;-73
2021/09/15 01:22:33;;;;;;;11.10;8.73;;;18.00;99.90;;;;;;5074492;28;20489;-72
2021/09/15 01:24:59;;;;;;;9.67;8.77;;;18.00;99.90;;;;;;5074170;28;20909;-72
2021/09/15 01:27:26;;;;;;;9.00;8.10;;;18.00;99.90;;;;;;5074308;28;20454;-72
2021/09/15 01:29:53;;;;;;;9.93;8.93;;;18.00;99.90;;;;;;5074229;28;20810;-72
2021/09/15 01:32:19;;;;;;;9.13;8.23;;;18.00;99.90;;;;;;5074465;28;20451;-72
2021/09/15 01:34:49;;;;;;;10.80;8.80;;;18.00;99.90;;;;;;5074335;28;20462;-72
2021/09/15 01:37:18;;;;;;;10.63;8.33;;;17.90;99.90;;;;;;5074596;28;20769;-72
2021/09/15 01:39:46;;;;;;;9.23;8.43;;;18.00;99.90;;;;;;5074424;28;20459;-72
2021/09/15 01:42:13;;;;;;;9.83;8.93;;;17.90;99.90;;;;;;5074195;28;20526;-72
2021/09/15 01:44:43;;;;;;;10.10;9.00;;;18.00;99.90;;;;;;5074268;28;20458;-72
2021/09/15 01:47:11;;;;;;;9.87;8.80;;;17.90;99.90;;;;;;5074296;28;20456;-72
2021/09/15 01:49:39;;;;;;;9.57;8.77;;;17.90;99.90;;;;;;5074356;28;20451;-72
2021/09/15 01:52:07;;;;;;;10.80;9.70;;;17.90;99.90;;;;;;5074254;28;20459;-72
2021/09/15 01:54:35;;;;;;;9.70;8.80;;;17.90;99.90;;;;;;5073721;28;20467;-72
2021/09/15 01:57:06;;;;;;;11.33;9.40;;;17.90;99.90;;;;;;5074157;28;20515;-72
2021/09/15 01:59:33;;;;;;;10.03;9.03;;;17.80;99.90;;;;;;5074198;28;20544;-72
2021/09/15 02:01:59;;;;;;;9.67;8.77;;;17.80;99.90;;;;;;5074074;28;20483;-72
2021/09/15 02:04:26;;;;;;;9.73;8.83;;;17.80;99.90;;;;;;5074112;28;20469;-72
2021/09/15 02:06:54;;;;;;;10.50;9.50;;;17.80;99.90;;;;;;5074076;28;20468;-72
2021/09/15 02:09:21;;;;;;;10.27;9.37;;;17.70;99.90;;;;;;5076097;28;20520;-73
2021/09/15 02:11:50;;;;;;;12.53;9.30;;;17.70;99.90;;;;;;5077180;28;20486;-72
2021/09/15 02:14:18;;;;;;;11.10;9.30;;;17.70;99.90;;;;;;5077754;28;20466;-72
2021/09/15 02:16:45;;;;;;;12.00;10.80;;;17.70;99.90;;;;;;5077061;28;20477;-72
2021/09/15 02:19:12;;;;;;;12.17;10.50;;;17.70;99.90;;;;;;5077635;28;20465;-72
2021/09/15 02:21:41;;;;;;;11.00;9.53;;;17.70;99.90;;;;;;5077295;28;20465;-71
2021/09/15 02:24:08;;;;;;;11.40;9.77;;;17.60;99.90;;;;;;5077145;28;20466;-72
2021/09/15 02:26:35;;;;;;;11.60;10.50;;;17.60;99.90;;;;;;5077645;28;20465;-72
2021/09/15 02:29:04;;;;;;;11.83;10.73;;;17.60;99.90;;;;;;5077466;28;20462;-72
2021/09/15 02:31:32;;;;;;;12.13;10.50;;;17.60;99.90;;;;;;5077282;28;20473;-72
2021/09/15 02:33:59;;;;;;;12.07;10.83;;;17.60;99.90;;;;;;5077413;28;20473;-72
2021/09/15 02:36:26;;;;;;;11.40;10.30;;;17.60;99.90;;;;;;5077242;28;20462;-72
2021/09/15 02:38:53;;;;;;;13.23;10.83;;;17.60;99.90;;;;;;5076827;28;20965;-72
2021/09/15 02:41:20;;;;;;;11.10;9.80;;;17.60;99.90;;;;;;5077059;28;20460;-72
2021/09/15 02:43:46;;;;;;;11.77;10.57;;;17.70;99.90;;;;;;5076845;28;20536;-73
2021/09/15 02:46:13;;;;;;;11.47;10.40;;;17.70;99.90;;;;;;5077026;28;20474;-72
2021/09/15 02:48:41;;;;;;;12.20;11.00;;;17.70;99.90;;;;;;5076428;28;20927;-72
2021/09/15 02:51:08;;;;;;;11.83;10.73;;;17.70;99.90;;;;;;5077050;28;20456;-72
2021/09/15 02:53:38;;;;;;;11.37;10.20;;;17.70;99.90;;;;;;5077545;28;20458;-72
2021/09/15 02:56:04;;;;;;;11.97;10.73;;;17.70;99.90;;;;;;5076644;28;20818;-72
2021/09/15 02:58:31;;;;;;;12.17;10.90;;;17.70;99.90;;;;;;5077267;28;20469;-72
2021/09/15 03:00:58;;;;;;;13.23;10.97;;;17.70;99.90;;;;;;5077009;28;20455;-72
2021/09/15 03:03:24;;;;;;;11.87;10.67;;;17.70;99.90;;;;;;5076998;28;20536;-72
2021/09/15 03:05:53;;;;;;;12.47;11.17;;;17.70;99.90;;;;;;5076871;28;20462;-72
2021/09/15 03:08:19;;;;;;;10.73;9.70;;;17.70;99.90;;;;;;5077442;28;20457;-73
2021/09/15 03:10:46;;;;;;;12.47;11.30;;;17.70;99.90;;;;;;5076908;28;20823;-72
2021/09/15 03:13:13;;;;;;;12.00;10.80;;;17.70;99.90;;;;;;5077880;28;20461;-73
2021/09/15 03:15:39;;;;;;;12.73;11.53;;;17.70;99.90;;;;;;5077102;28;20463;-73
2021/09/15 03:18:06;;;;;;;12.33;11.00;;;17.70;99.90;;;;;;5077253;28;20809;-72
2021/09/15 03:20:33;;;;;;;12.80;11.50;;;17.70;99.90;;;;;;5076658;28;20458;-72
2021/09/15 03:23:01;;;;;;;13.43;12.13;;;17.70;99.90;;;;;;5075849;28;20992;-72
2021/09/15 03:25:28;;;;;;;12.10;10.90;;;17.70;99.90;;;;;;5076563;28;20466;-72
2021/09/15 03:27:54;;;;;;;11.87;10.77;;;17.70;99.90;;;;;;5076436;28;20454;-73
2021/09/15 03:30:21;;;;;;;11.50;10.50;;;17.60;99.90;;;;;;5076217;28;20814;-72
2021/09/15 03:32:48;;;;;;;11.77;10.67;;;17.60;99.90;;;;;;5075672;28;20743;-72
2021/09/15 03:35:17;;;;;;;12.73;11.47;;;17.60;99.90;;;;;;5076323;28;20459;-72
2021/09/15 03:37:43;;;;;;;11.70;10.50;;;17.60;99.90;;;;;;5075833;28;20466;-72
2021/09/15 03:40:12;;;;;;;13.40;12.10;;;17.60;99.90;;;;;;5075905;28;20520;-72
2021/09/15 03:42:39;;;;;;;12.33;11.13;;;17.60;99.90;;;;;;5075680;28;20474;-73
2021/09/15 03:45:07;;;;;;;12.57;11.37;;;17.60;99.90;;;;;;5075709;28;20943;-73
2021/09/15 03:47:33;;;;;;;13.10;11.43;;;17.60;99.90;;;;;;5075963;28;20459;-72
2021/09/15 03:50:00;;;;;;;10.93;9.77;;;17.60;99.90;;;;;;5075827;28;20910;-72
2021/09/15 03:52:27;;;;;;;13.43;12.00;;;17.60;99.90;;;;;;5075702;28;20467;-72
2021/09/15 03:54:53;;;;;;;13.00;11.77;;;17.60;99.90;;;;;;5075673;28;20462;-72
2021/09/15 03:57:21;;;;;;;12.73;11.43;;;17.60;99.90;;;;;;5075271;28;20466;-72
2021/09/15 03:59:48;;;;;;;14.27;11.47;;;17.60;99.90;;;;;;5075297;28;20482;-72
2021/09/15 04:02:15;;;;;;;12.17;10.93;;;17.60;99.90;;;;;;5075123;28;20470;-72
2021/09/15 04:04:43;;;;;;;12.73;11.43;;;17.60;99.90;;;;;;5075612;28;20799;-72
2021/09/15 04:07:10;;;;;;;15.30;11.97;;;17.60;99.90;;;;;;5075756;28;20466;-73
2021/09/15 04:09:37;;;;;;;11.60;10.50;;;17.60;99.90;;;;;;5075538;28;20462;-72
2021/09/15 04:12:04;;;;;;;12.73;11.53;;;17.60;99.90;;;;;;5075470;28;20458;-72
2021/09/15 04:14:32;;;;;;;13.20;11.63;;;17.60;99.90;;;;;;5075165;28;20946;-72
2021/09/15 04:17:00;;;;;;;13.23;12.00;;;17.60;99.90;;;;;;5075476;28;20461;-72
2021/09/15 04:19:27;;;;;;;13.30;11.90;;;17.60;99.90;;;;;;5075421;28;20942;-72
2021/09/15 04:21:53;;;;;;;12.40;11.30;;;17.60;99.90;;;;;;5075310;28;20459;-72
2021/09/15 04:24:44;;;;;;;13.70;12.20;;;17.70;99.90;;;;;;5075196;28;20483;-72
2021/09/15 04:32:40;;;;;;;13.60;12.30;;;17.60;99.90;;;;;;5074789;28;20418;-72
2021/09/15 04:35:08;;;;;;;12.47;11.27;;;17.70;99.90;;;;;;5074861;28;20500;-72
2021/09/15 04:37:34;;;;;;;17.57;13.63;;;17.70;99.90;;;;;;5074972;28;20459;-72
2021/09/15 04:40:01;;;;;;;14.10;12.70;;;17.60;99.90;;;;;;5074699;28;20450;-72
2021/09/15 04:42:29;;;;;;;13.40;12.10;;;17.60;99.90;;;;;;5074507;28;20985;-72
2021/09/15 04:44:57;;;;;;;14.83;12.67;;;17.60;99.90;;;;;;5074778;28;20462;-72
2021/09/15 04:47:23;;;;;;;14.30;12.80;;;17.60;99.90;;;;;;5074598;28;20938;-72
2021/09/15 04:49:52;;;;;;;13.33;12.03;;;17.60;99.90;;;;;;5074768;28;20462;-72
2021/09/15 04:52:19;;;;;;;14.07;12.77;;;17.60;99.90;;;;;;5074625;28;20470;-72
2021/09/15 04:54:49;;;;;;;14.20;12.90;;;17.60;99.90;;;;;;5074744;28;20462;-72
2021/09/15 04:57:15;;;;;;;13.27;11.97;;;17.60;99.90;;;;;;5074598;28;20459;-72
2021/09/15 04:59:42;;;;;;;13.47;12.10;;;17.60;99.90;;;;;;5074747;28;20454;-72
2021/09/15 05:02:12;;;;;;;13.00;11.70;;;17.60;99.90;;;;;;5075080;28;20450;-72
2021/09/15 05:04:38;;;;;;;12.63;11.43;;;17.60;99.90;;;;;;5074757;28;20865;-72
2021/09/15 05:07:05;;;;;;;13.60;12.40;;;17.60;99.90;;;;;;5074322;28;20494;-72
2021/09/15 05:09:34;;;;;;;13.60;12.20;;;17.60;99.90;;;;;;5074597;28;20512;-72
2021/09/15 05:12:01;;;;;;;13.97;12.67;;;17.60;99.90;;;;;;5074308;28;20545;-72
2021/09/15 05:14:30;;;;;;;13.33;12.03;;;17.60;99.90;;;;;;5074701;28;20454;-72
2021/09/15 05:16:57;;;;;;;14.80;12.40;;;17.60;99.90;;;;;;5074388;28;20450;-72
2021/09/15 05:19:27;;;;;;;14.80;13.20;;;17.60;99.90;;;;;;5074466;28;20462;-72
2021/09/15 05:21:53;;;;;;;12.87;11.63;;;17.60;99.90;;;;;;5074388;28;20463;-72
2021/09/15 05:24:23;;;;;;;13.27;11.97;;;17.60;99.90;;;;;;5074217;28;20478;-71
2021/09/15 05:26:50;;;;;;;14.30;12.90;;;17.70;99.90;;;;;;5074010;28;20479;-72
2021/09/15 05:29:16;;;;;;;13.80;11.90;;;17.70;99.90;;;;;;5074050;28;20516;-73
2021/09/15 05:31:48;;;;;;;13.77;12.37;;;17.70;99.90;;;;;;5074192;28;20459;-73
2021/09/15 05:34:15;;;;;;;13.90;12.50;;;17.70;99.90;;;;;;5074429;28;20439;-72
2021/09/15 05:36:43;;;;;;;13.53;12.20;;;17.80;99.90;;;;;;5074238;28;20835;-73
2021/09/15 05:39:09;;;;;;;12.30;11.10;;;17.80;99.90;;;;;;5073686;28;20973;-72
2021/09/15 05:41:36;;;;;;;12.80;11.50;;;17.80;99.90;;;;;;5074123;28;20460;-72
2021/09/15 05:44:03;;;;;;;14.23;12.50;;;17.80;99.90;;;;;;5075535;28;20478;-72
2021/09/15 05:46:30;;;;;;;14.80;13.03;;;17.80;99.90;;;;;;5077931;28;20469;-72
2021/09/15 05:48:56;;;;;;;13.77;12.27;;;17.90;99.90;;;;;;5077685;28;20469;-72
2021/09/15 05:51:23;;;;;;;14.47;12.97;;;18.00;99.90;;;;;;5078008;28;20455;-72
2021/09/15 05:53:51;;;;;;;15.87;12.20;;;18.00;99.90;;;;;;5077954;28;20504;-73
2021/09/15 05:56:18;;;;;;;13.83;12.53;;;18.10;99.90;;;;;;5077715;28;20465;-73
2021/09/15 05:58:47;;;;;;;15.80;12.17;;;18.10;99.90;;;;;;5077956;28;20454;-73
2021/09/15 06:01:14;;;;;;;14.13;12.67;;;18.20;99.90;;;;;;5078188;28;20481;-73
2021/09/15 06:03:41;;;;;;;14.77;11.80;;;18.30;99.90;;;;;;5078245;28;20539;-73
2021/09/15 06:06:07;;;;;;;14.17;12.40;;;18.30;99.90;;;;;;5077872;28;20480;-74
2021/09/15 06:08:34;;;;;;;15.13;12.93;;;18.30;99.90;;;;;;5077931;28;20471;-73
2021/09/15 06:11:02;;;;;;;13.23;11.83;;;18.40;99.90;;;;;;5077234;28;20853;-73
2021/09/15 06:13:29;;;;;;;13.40;12.00;;;18.40;99.90;;;;;;5077055;28;20526;-73
2021/09/15 06:15:55;;;;;;;18.20;13.30;;;18.40;99.90;;;;;;5077238;28;20464;-73
2021/09/15 06:18:22;;;;;;;14.10;12.60;;;18.40;99.90;;;;;;5077094;28;20972;-77
2021/09/15 06:20:49;;;;;;;13.17;11.97;;;18.50;99.90;;;;;;5077942;28;20456;-74
2021/09/15 06:23:15;;;;;;;13.40;12.15;;;18.50;99.90;;;;;;5077421;28;20493;-74
2021/09/15 06:25:42;;;;;;;16.13;13.73;;;18.50;99.90;;;;;;5077934;28;20215;-73
2021/09/15 06:28:13;;;;;;;13.03;11.73;;;18.60;99.90;;;;;;5077290;28;20530;-74
2021/09/15 06:30:41;;;;;;;14.33;12.00;;;18.60;99.90;;;;;;5077640;28;20443;-72
2021/09/15 06:33:08;;;;;;;13.73;12.33;;;18.60;99.90;;;;;;5076963;28;20544;-73
2021/09/15 06:35:34;;;;;;;12.87;11.60;;;18.70;99.90;;;;;;5077290;28;20459;-72
2021/09/15 06:38:01;;;;;;;14.33;12.30;;;18.70;99.90;;;;;;5076772;28;20825;-72
2021/09/15 06:40:28;;;;;;;13.63;12.23;;;18.70;99.90;;;;;;5076803;28;20512;-72
2021/09/15 06:42:55;;;;;;;14.20;12.13;;;18.70;99.90;;;;;;5076606;28;20456;-72
2021/09/15 06:45:23;;;;;;;12.47;11.20;;;18.80;99.90;;;;;;5076626;28;20455;-72
2021/09/15 06:47:50;;;;;;;12.87;11.67;;;18.80;99.90;;;;;;5076715;28;20464;-72
2021/09/15 06:50:16;;;;;;;12.47;11.17;;;18.80;99.90;;;;;;5076541;28;20525;-72
2021/09/15 06:52:43;;;;;;;11.83;10.73;;;18.80;99.90;;;;;;5076748;28;20459;-72
2021/09/15 06:55:10;;;;;;;13.47;11.23;;;18.90;99.90;;;;;;5076671;28;20541;-73
2021/09/15 06:57:37;;;;;;;12.25;11.05;;;18.90;99.90;;;;;;5076479;28;20469;-72
2021/09/15 07:00:12;;;;;;;12.57;11.37;;;19.10;99.90;;;;;;5076433;28;20211;-71
2021/09/15 07:02:40;;;;;;;12.30;11.10;;;19.20;99.90;;;;;;5077021;28;20440;-72
2021/09/15 07:05:07;;;;;;;18.83;12.03;;;19.20;99.90;;;;;;5076427;28;20977;-72
2021/09/15 07:07:34;;;;;;;13.10;11.80;;;19.30;99.90;;;;;;5076472;28;20568;-73
2021/09/15 07:10:01;;;;;;;13.40;12.00;;;19.30;99.90;;;;;;5076127;28;20606;-72
2021/09/15 07:12:28;;;;;;;11.73;10.67;;;19.30;99.90;;;;;;5076492;28;20457;-72
2021/09/15 07:14:54;;;;;;;12.27;11.00;;;19.40;99.90;;;;;;5076269;28;20474;-72
2021/09/15 07:17:21;;;;;;;15.10;11.50;;;19.50;99.90;;;;;;5076194;28;20459;-72
2021/09/15 07:19:49;;;;;;;11.53;10.40;;;19.50;99.90;;;;;;5076147;28;20765;-72
2021/09/15 07:22:16;;;;;;;13.27;11.90;;;19.60;99.90;;;;;;5076060;28;20524;-72
2021/09/15 07:24:42;;;;;;;12.23;11.07;;;19.60;99.90;;;;;;5075690;28;20482;-72
2021/09/15 07:27:12;;;;;;;12.37;11.17;;;19.60;99.90;;;;;;5076463;28;20536;-72
2021/09/15 07:29:39;;;;;;;11.50;10.30;;;19.60;99.90;;;;;;5076208;28;20473;-74
2021/09/15 07:32:06;;;;;;;13.93;11.80;;;19.60;99.90;;;;;;5076771;28;20902;-73
2021/09/15 07:34:35;;;;;;;13.20;12.00;;;19.60;99.90;;;;;;5077366;28;20458;-73
2021/09/15 07:37:04;;;;;;;14.67;12.20;;;19.60;99.90;;;;;;5076386;28;20462;-72
2021/09/15 07:39:30;;;;;;;11.60;10.50;;;19.70;99.90;;;;;;5076151;28;20450;-71
2021/09/15 07:41:57;;;;;;;11.30;9.97;;;19.80;99.90;;;;;;5076531;28;20472;-72
2021/09/15 07:44:25;;;;;;;11.03;9.93;;;19.80;99.90;;;;;;5077495;28;20481;-72
2021/09/15 07:46:53;;;;;;;11.37;10.23;;;20.00;99.90;;;;;;5077518;28;20463;-73
2021/09/15 07:49:20;;;;;;;11.63;10.17;;;20.10;99.90;;;;;;5078886;28;20458;-74
2021/09/15 07:51:46;;;;;;;14.20;12.23;;;20.30;99.90;;;;;;5081207;28;20454;-72
2021/09/15 07:54:14;;;;;;;11.50;10.40;;;20.40;99.90;;;;;;5080276;28;20466;-73
2021/09/15 07:56:41;;;;;;;11.13;10.03;;;20.50;99.90;;;;;;5079372;28;20455;-73
2021/09/15 07:59:09;;;;;;;11.37;10.30;;;20.70;99.90;;;;;;5077595;28;20454;-73
2021/09/15 08:01:36;;;;;;;12.67;9.87;;;20.90;99.90;;;;;;5078650;28;20756;-74
2021/09/15 08:04:03;;;;;;;11.50;10.37;;;21.00;99.90;;;;;;5080068;28;20483;-73
2021/09/15 08:06:30;;;;;;;9.83;8.90;;;21.20;99.90;;;;;;5078221;28;20569;-73
2021/09/15 08:08:57;;;;;;;10.20;9.30;;;21.40;99.90;;;;;;5078597;28;20459;-73
2021/09/15 08:11:25;;;;;;;11.27;9.53;;;21.60;99.90;;;;;;5077498;28;20911;-73
2021/09/15 08:13:52;;;;;;;16.17;9.83;;;21.80;99.90;;;;;;5076254;28;20903;-73
2021/09/15 08:16:20;;;;;;;9.90;9.10;;;21.90;99.90;;;;;;5076681;28;20466;-74
2021/09/15 08:18:47;;;;;;;10.43;9.33;;;22.10;99.90;;;;;;5076989;28;20459;-73
2021/09/15 08:21:13;;;;;;;10.70;9.63;;;22.20;99.90;;;;;;5075730;28;20463;-73
2021/09/15 08:23:40;;;;;;;10.03;9.13;;;22.40;99.90;;;;;;5074977;28;20491;-72
2021/09/15 08:26:07;;;;;;;11.00;9.67;;;22.50;99.90;;;;;;5075009;28;20459;-73
2021/09/15 08:28:37;;;;;;;10.83;9.83;;;22.50;99.90;;;;;;5075216;28;20781;-72
2021/09/15 08:31:04;;;;;;;9.80;8.90;;;22.30;99.90;;;;;;5075418;28;20455;-72
2021/09/15 08:33:30;;;;;;;9.03;8.17;;;22.20;99.90;;;;;;5074796;28;20471;-72
2021/09/15 08:35:57;;;;;;;9.80;8.80;;;22.20;99.90;;;;;;5074657;28;20485;-72
2021/09/15 08:38:24;;;;;;;9.80;9.00;;;22.20;99.90;;;;;;5074880;28;20463;-73
2021/09/15 08:40:54;;;;;;;10.70;9.60;;;22.10;99.90;;;;;;5074899;28;20481;-72
2021/09/15 08:43:20;;;;;;;10.23;9.27;;;22.20;99.90;;;;;;5074780;28;20958;-73
2021/09/15 08:45:49;;;;;;;10.47;9.47;;;22.20;99.90;;;;;;5074576;28;20789;-73
2021/09/15 08:48:19;;;;;;;9.60;8.60;;;22.40;99.90;;;;;;5074805;28;20848;-73
2021/09/15 08:50:49;;;;;;;11.63;9.00;;;22.50;99.90;;;;;;5074755;28;20503;-73
2021/09/15 08:53:16;;;;;;;10.40;9.20;;;22.60;99.90;;;;;;5074847;28;20450;-72
2021/09/15 08:55:46;;;;;;;11.40;8.83;;;22.70;99.90;;;;;;5074761;28;20450;-72
2021/09/15 08:58:13;;;;;;;9.80;8.80;;;22.70;99.90;;;;;;5074658;28;20463;-72
2021/09/15 09:00:39;;;;;;;12.07;8.20;;;22.70;99.90;;;;;;5074552;28;20466;-72
2021/09/15 09:03:11;;;;;;;10.57;9.53;;;22.70;99.90;;;;;;5074530;28;20477;-72
2021/09/15 09:05:38;;;;;;;14.60;12.17;;;22.80;99.90;;;;;;5074317;28;20911;-72
2021/09/15 09:08:19;;;;;;;9.77;8.87;;;22.90;99.90;;;;;;5074673;28;20454;-72
2021/09/15 09:10:52;;;;;;;10.37;9.37;;;22.90;99.90;;;;;;5074141;28;20868;-72
2021/09/15 09:13:19;;;;;;;9.00;8.30;;;23.00;99.90;;;;;;5074201;28;20887;-72
2021/09/15 09:15:48;;;;;;;8.87;8.07;;;23.00;99.90;;;;;;5074401;28;20529;-73
2021/09/15 09:18:16;;;;;;;11.30;8.00;;;23.00;99.90;;;;;;5074412;28;20481;-73
2021/09/15 09:20:43;;;;;;;8.57;7.70;;;23.00;99.90;;;;;;5078521;28;20519;-73
2021/09/15 09:23:12;;;;;;;12.37;8.90;;;23.20;99.90;;;;;;5078504;28;20462;-72
2021/09/15 09:25:43;;;;;;;9.93;8.87;;;23.40;99.90;;;;;;5078334;28;20488;-72
2021/09/15 09:28:19;;;;;;;13.13;8.80;;;23.50;99.90;;;;;;5077866;28;20914;-72
2021/09/15 09:30:49;;;;;;;8.03;7.03;;;23.70;99.90;;;;;;5078074;28;20916;-72
2021/09/15 09:33:17;;;;;;;9.07;8.00;;;23.80;99.90;;;;;;5078080;28;20455;-72
2021/09/15 09:35:48;;;;;;;11.10;9.47;;;23.90;99.90;;;;;;5078275;28;20454;-73
2021/09/15 09:38:19;;;;;;;8.63;7.80;;;24.00;99.90;;;;;;5078255;28;20442;-73
2021/09/15 09:41:07;;;;;;;9.30;8.10;;;24.00;99.90;;;;;;5078152;28;20443;-73
2021/09/15 09:43:36;;;;;;;9.33;8.43;;;24.00;99.90;;;;;;5077780;28;20775;-72
2021/09/15 09:46:04;;;;;;;9.07;8.10;;;24.10;99.90;;;;;;5077649;28;20486;-73
2021/09/15 09:48:40;;;;;;;16.33;7.20;;;24.20;99.90;;;;;;5078076;28;20481;-73
2021/09/15 09:51:31;;;;;;;8.50;7.70;;;24.20;99.90;;;;;;5078102;28;20446;-72
2021/09/15 09:54:19;;;;;;;8.07;7.27;;;24.30;99.90;;;;;;5077945;28;20470;-73
2021/09/15 09:56:47;;;;;;;8.90;8.10;;;24.30;99.90;;;;;;5077651;28;20530;-72
2021/09/15 09:59:15;;;;;;;8.77;7.40;;;24.40;99.90;;;;;;5077132;28;20458;-73
2021/09/15 10:01:44;;;;;;;8.63;7.63;;;24.60;99.90;;;;;;5077861;28;20473;-73
2021/09/15 10:04:12;;;;;;;8.80;7.90;;;24.70;99.90;;;;;;5077514;28;20490;-73
2021/09/15 10:06:41;;;;;;;8.83;6.90;;;24.80;99.90;;;;;;5077620;28;20488;-73
2021/09/15 10:09:08;;;;;;;8.47;7.67;;;24.90;99.90;;;;;;5077427;28;20791;-73
2021/09/15 10:11:36;;;;;;;9.17;7.33;;;25.00;99.90;;;;;;5076884;28;20474;-73
2021/09/15 10:14:04;;;;;;;7.07;6.47;;;25.20;99.90;;;;;;5077115;28;20481;-72
2021/09/15 10:16:34;;;;;;;8.03;7.27;;;25.40;99.90;;;;;;5077071;28;20973;-73
2021/09/15 10:19:04;;;;;;;7.87;7.07;;;25.50;99.90;;;;;;5077366;28;20458;-73
2021/09/15 10:21:35;;;;;;;8.20;7.20;;;25.70;99.90;;;;;;5077176;28;20504;-72
2021/09/15 10:24:02;;;;;;;12.73;7.20;;;25.80;99.90;;;;;;5077000;28;20439;-73
2021/09/15 10:26:35;;;;;;;7.73;7.07;;;26.00;99.90;;;;;;5077277;28;20927;-74
2021/09/15 10:29:29;;;;;;;7.30;6.60;;;26.20;99.90;;;;;;5077450;28;20462;-73
2021/09/15 10:32:02;;;;;;;8.10;7.20;;;26.40;99.90;;;;;;5042469;28;20946;-73
2021/09/15 10:34:54;;;;;;;8.00;7.23;;;26.50;99.90;;;;;;5077969;28;20435;-74
2021/09/15 10:37:52;;;;;;;7.33;6.37;;;26.60;99.90;;;;;;5077542;28;20455;-74
2021/09/15 10:40:44;;;;;;;7.80;6.80;;;26.70;99.90;;;;;;5076964;28;20512;-72
2021/09/15 10:43:47;;;;;;;6.90;6.30;;;26.70;99.90;;;;;;5062429;28;20512;-72
2021/09/15 10:46:19;;;;;;;7.13;6.43;;;26.60;99.90;;;;;;5076573;28;20965;-73
2021/09/15 10:48:46;;;;;;;7.43;6.70;;;26.50;99.90;;;;;;5076926;28;20461;-73
2021/09/15 10:51:21;;;;;;;6.77;6.27;;;26.50;99.90;;;;;;5076966;28;20455;-73
2021/09/15 10:53:49;;;;;;;8.97;7.67;;;26.40;99.90;;;;;;5077138;28;20481;-73
2021/09/15 10:56:36;;;;;;;7.97;7.20;;;26.30;99.90;;;;;;5076728;28;20931;-74
2021/09/15 10:59:03;;;;;;;8.80;7.53;;;26.30;99.90;;;;;;5076725;28;20469;-72
2021/09/15 11:01:38;;;;;;;6.97;6.30;;;26.30;99.90;;;;;;5076567;28;20474;-72
2021/09/15 11:04:05;;;;;;;6.23;5.63;;;26.30;99.90;;;;;;5077006;28;20518;-72
2021/09/15 11:06:36;;;;;;;6.50;5.90;;;26.40;99.90;;;;;;5076873;28;20564;-73
2021/09/15 11:09:05;;;;;;;8.07;7.10;;;26.40;99.90;;;;;;5077464;28;20457;-72
2021/09/15 11:11:52;;;;;;;7.77;7.07;;;26.50;99.90;;;;;;5076665;28;20494;-74
2021/09/15 11:14:19;;;;;;;8.67;6.60;;;26.60;99.90;;;;;;5077592;28;20930;-73
2021/09/15 11:16:47;;;;;;;7.03;6.43;;;26.60;99.90;;;;;;5077101;28;20455;-73
2021/09/15 11:19:15;;;;;;;7.07;6.57;;;26.60;99.90;;;;;;5076956;28;20849;-73
2021/09/15 11:21:46;;;;;;;8.67;6.27;;;26.70;99.90;;;;;;5076890;28;20569;-72
2021/09/15 11:24:20;;;;;;;6.77;6.17;;;26.80;99.90;;;;;;5076618;28;20484;-72
2021/09/15 11:26:52;;;;;;;6.67;6.17;;;26.90;99.90;;;;;;5077017;28;20442;-72
2021/09/15 11:29:40;;;;;;;7.60;7.00;;;26.90;99.90;;;;;;5076707;28;20458;-73
2021/09/15 11:32:08;;;;;;;7.37;6.67;;;26.90;99.90;;;;;;5076504;28;20898;-73
2021/09/15 11:34:42;;;;;;;8.60;7.00;;;26.90;99.90;;;;;;5076541;28;20450;-72
2021/09/15 11:37:18;;;;;;;7.50;6.57;;;26.70;99.90;;;;;;5079212;28;20443;-73
2021/09/15 11:39:52;;;;;;;6.30;5.80;;;26.60;99.90;;;;;;5081117;28;20465;-74
2021/09/15 11:42:22;;;;;;;12.43;7.37;;;26.50;99.90;;;;;;5079856;28;20521;-72
2021/09/15 11:44:49;;;;;;;8.47;7.10;;;26.30;99.90;;;;;;5077402;28;20474;-74
2021/09/15 11:47:24;;;;;;;7.40;6.80;;;26.10;99.90;;;;;;5079824;28;20504;-73
2021/09/15 11:49:50;;;;;;;9.67;7.07;;;26.00;99.90;;;;;;5077448;28;20882;-73
2021/09/15 11:52:17;;;;;;;7.57;6.97;;;25.80;99.90;;;;;;5076050;28;20458;-73
2021/09/15 11:54:49;;;;;;;7.47;6.70;;;25.70;99.90;;;;;;5076969;28;20458;-74
2021/09/15 11:57:17;;;;;;;7.37;6.63;;;25.60;99.90;;;;;;5075997;28;20447;-73
2021/09/15 11:59:44;;;;;;;11.10;7.50;;;25.60;99.90;;;;;;5076206;28;20454;-73
2021/09/15 12:02:14;;;;;;;7.33;6.73;;;25.60;99.90;;;;;;5077739;28;20465;-73
2021/09/15 12:04:45;;;;;;;7.37;6.80;;;25.60;99.90;;;;;;5077056;28;20451;-73
2021/09/15 12:07:16;;;;;;;7.30;6.60;;;25.60;99.90;;;;;;5075905;28;20439;-73
2021/09/15 12:09:43;;;;;;;7.57;6.87;;;25.60;99.90;;;;;;5075443;28;20557;-73
2021/09/15 12:12:14;;;;;;;7.77;6.87;;;25.60;99.90;;;;;;5075613;28;20783;-71
2021/09/15 12:14:45;;;;;;;7.50;6.80;;;25.70;99.90;;;;;;5075887;28;20791;-73
2021/09/15 12:17:14;;;;;;;8.80;6.80;;;25.70;99.90;;;;;;5075278;28;20529;-72
2021/09/15 12:19:48;;;;;;;10.77;6.40;;;25.70;99.90;;;;;;5075203;28;20470;-73
2021/09/15 12:22:20;;;;;;;8.23;7.53;;;25.80;99.90;;;;;;5074829;28;20435;-73
2021/09/15 12:24:58;;;;;;;7.67;6.70;;;25.70;99.90;;;;;;5074810;28;20500;-72
2021/09/15 12:27:27;;;;;;;8.07;7.37;;;25.70;99.90;;;;;;5075033;28;20504;-72
2021/09/15 12:30:02;;;;;;;7.03;6.53;;;25.80;99.90;;;;;;5074487;28;20449;-72
2021/09/15 12:32:31;;;;;;;8.13;7.43;;;25.90;99.90;;;;;;5075174;28;20543;-72
2021/09/15 12:34:58;;;;;;;8.50;7.73;;;26.00;99.90;;;;;;5074258;28;20938;-73
2021/09/15 12:37:25;;;;;;;7.50;6.80;;;26.00;99.90;;;;;;5074951;28;20465;-72
2021/09/15 12:39:53;;;;;;;10.60;8.00;;;26.00;99.90;;;;;;5074786;28;20450;-72
2021/09/15 12:42:21;;;;;;;8.10;7.43;;;25.80;99.90;;;;;;5074641;28;20466;-72
2021/09/15 12:44:59;;;;;;;7.43;6.73;;;25.70;99.90;;;;;;5074883;28;20460;-72
2021/09/15 12:47:39;;;;;;;10.70;7.70;;;25.60;99.90;;;;;;5074436;28;20439;-71
2021/09/15 12:50:17;;;;;;;6.73;6.13;;;25.40;99.90;;;;;;5075104;28;20439;-72